sensor_id;sensor_type;location;lat;lon;timestamp;P1;durP1;ratioP1;P2;durP2;ratioP2
43226;SDS011;28839;52.404;9.808;2022-08-20T00:01:07;5.45;;;4.03;;
43226;SDS011;28839;52.404;9.808;2022-08-20T00:08:02;4.68;;;4.22;;
43226;SDS011;28839;52.404;9.808;2022-08-20T00:14:59;10.18;;;4.93;;
43226;SDS011;28839;52.404;9.808;2022-08-20T00:21:54;5.00;;;3.83;;
43226;SDS011;28839;52.404;9.808;2022-08-20T00:28:49;6.82;;;4.28;;
43226;SDS011;28839;52.404;9.808;2022-08-20T00:35:45;5.75;;;3.80;;
43226;SDS011;28839;52.404;9.808;2022-08-20T00:42:43;4.90;;;3.97;;
43226;SDS011;28839;52.404;9.808;2022-08-20T00:49:39;10.05;;;5.80;;
43226;SDS011;28839;52.404;9.808;2022-08-20T00:56:33;7.05;;;4.85;;
43226;SDS011;28839;52.404;9.808;2022-08-20T01:03:29;5.20;;;4.70;;
43226;SDS011;28839;52.404;9.808;2022-08-20T01:10:26;5.43;;;4.70;;
43226;SDS011;28839;52.404;9.808;2022-08-20T01:17:22;5.15;;;3.97;;
43226;SDS011;28839;52.404;9.808;2022-08-20T01:24:21;5.93;;;4.22;;
43226;SDS011;28839;52.404;9.808;2022-08-20T01:31:22;4.60;;;4.20;;
43226;SDS011;28839;52.404;9.808;2022-08-20T01:38:17;4.75;;;4.22;;
43226;SDS011;28839;52.404;9.808;2022-08-20T01:45:11;4.87;;;3.92;;
43226;SDS011;28839;52.404;9.808;2022-08-20T01:52:07;5.70;;;4.37;;
43226;SDS011;28839;52.404;9.808;2022-08-20T01:59:03;4.60;;;4.20;;
43226;SDS011;28839;52.404;9.808;2022-08-20T02:05:59;6.07;;;4.05;;
43226;SDS011;28839;52.404;9.808;2022-08-20T02:12:55;6.90;;;4.03;;
43226;SDS011;28839;52.404;9.808;2022-08-20T02:19:50;7.90;;;4.90;;
43226;SDS011;28839;52.404;9.808;2022-08-20T02:26:46;6.82;;;4.35;;
43226;SDS011;28839;52.404;9.808;2022-08-20T02:33:42;8.93;;;4.68;;
43226;SDS011;28839;52.404;9.808;2022-08-20T02:40:36;4.95;;;4.30;;
43226;SDS011;28839;52.404;9.808;2022-08-20T02:47:30;4.93;;;4.20;;
43226;SDS011;28839;52.404;9.808;2022-08-20T02:54:25;6.28;;;4.47;;
43226;SDS011;28839;52.404;9.808;2022-08-20T03:01:20;5.85;;;4.18;;
43226;SDS011;28839;52.404;9.808;2022-08-20T03:08:14;5.72;;;3.62;;
43226;SDS011;28839;52.404;9.808;2022-08-20T03:15:10;6.65;;;4.47;;
43226;SDS011;28839;52.404;9.808;2022-08-20T03:22:04;5.32;;;4.65;;
43226;SDS011;28839;52.404;9.808;2022-08-20T03:28:58;4.20;;;3.75;;
43226;SDS011;28839;52.404;9.808;2022-08-20T03:35:53;5.43;;;3.62;;
43226;SDS011;28839;52.404;9.808;2022-08-20T03:42:47;6.10;;;3.78;;
43226;SDS011;28839;52.404;9.808;2022-08-20T03:49:43;5.68;;;3.87;;
43226;SDS011;28839;52.404;9.808;2022-08-20T03:56:39;6.05;;;3.53;;
43226;SDS011;28839;52.404;9.808;2022-08-20T04:03:33;6.28;;;4.03;;
43226;SDS011;28839;52.404;9.808;2022-08-20T04:10:27;5.28;;;4.78;;
43226;SDS011;28839;52.404;9.808;2022-08-20T04:17:23;6.37;;;4.70;;
43226;SDS011;28839;52.404;9.808;2022-08-20T04:24:18;7.18;;;6.30;;
43226;SDS011;28839;52.404;9.808;2022-08-20T04:31:12;6.82;;;5.95;;
43226;SDS011;28839;52.404;9.808;2022-08-20T04:38:08;7.07;;;6.45;;
43226;SDS011;28839;52.404;9.808;2022-08-20T04:45:07;7.65;;;6.55;;
43226;SDS011;28839;52.404;9.808;2022-08-20T04:52:01;8.25;;;6.40;;
43226;SDS011;28839;52.404;9.808;2022-08-20T04:58:58;8.70;;;7.80;;
43226;SDS011;28839;52.404;9.808;2022-08-20T05:05:53;8.63;;;7.82;;
43226;SDS011;28839;52.404;9.808;2022-08-20T05:12:47;10.95;;;9.05;;
43226;SDS011;28839;52.404;9.808;2022-08-20T05:19:43;14.65;;;11.15;;
43226;SDS011;28839;52.404;9.808;2022-08-20T05:26:38;12.70;;;11.38;;
43226;SDS011;28839;52.404;9.808;2022-08-20T05:40:28;12.05;;;10.75;;
43226;SDS011;28839;52.404;9.808;2022-08-20T05:47:22;13.35;;;11.85;;
43226;SDS011;28839;52.404;9.808;2022-08-20T05:54:19;12.40;;;11.10;;
43226;SDS011;28839;52.404;9.808;2022-08-20T06:01:16;11.30;;;10.18;;
43226;SDS011;28839;52.404;9.808;2022-08-20T06:08:10;13.52;;;10.95;;
43226;SDS011;28839;52.404;9.808;2022-08-20T06:15:05;14.02;;;12.23;;
43226;SDS011;28839;52.404;9.808;2022-08-20T06:22:02;13.02;;;11.68;;
43226;SDS011;28839;52.404;9.808;2022-08-20T06:28:57;13.75;;;12.32;;
43226;SDS011;28839;52.404;9.808;2022-08-20T06:35:51;14.20;;;12.15;;
43226;SDS011;28839;52.404;9.808;2022-08-20T06:42:47;13.85;;;12.35;;
43226;SDS011;28839;52.404;9.808;2022-08-20T06:49:42;11.52;;;10.35;;
43226;SDS011;28839;52.404;9.808;2022-08-20T06:56:36;11.10;;;10.00;;
43226;SDS011;28839;52.404;9.808;2022-08-20T07:03:31;10.52;;;9.40;;
43226;SDS011;28839;52.404;9.808;2022-08-20T07:10:25;9.85;;;8.50;;
43226;SDS011;28839;52.404;9.808;2022-08-20T07:17:20;10.45;;;8.88;;
43226;SDS011;28839;52.404;9.808;2022-08-20T07:24:15;11.57;;;10.07;;
43226;SDS011;28839;52.404;9.808;2022-08-20T07:31:09;10.63;;;9.57;;
43226;SDS011;28839;52.404;9.808;2022-08-20T07:38:21;11.27;;;10.07;;
43226;SDS011;28839;52.404;9.808;2022-08-20T07:45:17;12.43;;;9.80;;
43226;SDS011;28839;52.404;9.808;2022-08-20T07:52:12;11.20;;;9.52;;
43226;SDS011;28839;52.404;9.808;2022-08-20T07:59:06;10.65;;;9.65;;
43226;SDS011;28839;52.404;9.808;2022-08-20T08:06:02;10.77;;;9.43;;
43226;SDS011;28839;52.404;9.808;2022-08-20T08:12:57;11.02;;;9.93;;
43226;SDS011;28839;52.404;9.808;2022-08-20T08:19:54;9.13;;;8.25;;
43226;SDS011;28839;52.404;9.808;2022-08-20T08:26:49;10.70;;;9.00;;
43226;SDS011;28839;52.404;9.808;2022-08-20T08:33:43;9.50;;;7.07;;
43226;SDS011;28839;52.404;9.808;2022-08-20T08:47:34;9.67;;;8.53;;
43226;SDS011;28839;52.404;9.808;2022-08-20T08:54:30;8.55;;;7.78;;
43226;SDS011;28839;52.404;9.808;2022-08-20T09:01:26;7.55;;;6.75;;
43226;SDS011;28839;52.404;9.808;2022-08-20T09:08:23;9.13;;;7.97;;
43226;SDS011;28839;52.404;9.808;2022-08-20T09:15:19;8.38;;;7.57;;
43226;SDS011;28839;52.404;9.808;2022-08-20T09:22:14;11.10;;;8.43;;
43226;SDS011;28839;52.404;9.808;2022-08-20T09:29:11;9.35;;;8.20;;
43226;SDS011;28839;52.404;9.808;2022-08-20T09:36:06;9.32;;;7.62;;
43226;SDS011;28839;52.404;9.808;2022-08-20T09:43:00;7.70;;;6.90;;
43226;SDS011;28839;52.404;9.808;2022-08-20T09:49:55;7.65;;;6.72;;
43226;SDS011;28839;52.404;9.808;2022-08-20T09:56:49;9.43;;;7.82;;
43226;SDS011;28839;52.404;9.808;2022-08-20T10:03:43;7.35;;;6.65;;
43226;SDS011;28839;52.404;9.808;2022-08-20T10:10:41;8.43;;;7.62;;
43226;SDS011;28839;52.404;9.808;2022-08-20T10:17:35;9.13;;;8.10;;
43226;SDS011;28839;52.404;9.808;2022-08-20T10:24:32;8.60;;;7.70;;
43226;SDS011;28839;52.404;9.808;2022-08-20T10:31:28;9.30;;;7.18;;
43226;SDS011;28839;52.404;9.808;2022-08-20T10:38:22;7.53;;;6.82;;
43226;SDS011;28839;52.404;9.808;2022-08-20T10:45:15;10.88;;;7.03;;
43226;SDS011;28839;52.404;9.808;2022-08-20T10:52:11;7.60;;;6.82;;
43226;SDS011;28839;52.404;9.808;2022-08-20T10:59:05;12.15;;;10.95;;
43226;SDS011;28839;52.404;9.808;2022-08-20T11:05:59;14.15;;;12.77;;
43226;SDS011;28839;52.404;9.808;2022-08-20T11:12:55;19.37;;;17.48;;
43226;SDS011;28839;52.404;9.808;2022-08-20T11:19:49;19.27;;;17.30;;
43226;SDS011;28839;52.404;9.808;2022-08-20T11:26:44;22.48;;;20.08;;
43226;SDS011;28839;52.404;9.808;2022-08-20T11:33:41;16.12;;;14.63;;
43226;SDS011;28839;52.404;9.808;2022-08-20T11:40:35;13.25;;;11.95;;
43226;SDS011;28839;52.404;9.808;2022-08-20T11:47:28;10.52;;;9.52;;
43226;SDS011;28839;52.404;9.808;2022-08-20T11:54:26;6.95;;;6.30;;
43226;SDS011;28839;52.404;9.808;2022-08-20T12:01:20;10.18;;;9.18;;
43226;SDS011;28839;52.404;9.808;2022-08-20T12:15:10;9.57;;;8.68;;
43226;SDS011;28839;52.404;9.808;2022-08-20T12:22:03;6.97;;;6.37;;
43226;SDS011;28839;52.404;9.808;2022-08-20T12:28:58;4.57;;;4.18;;
43226;SDS011;28839;52.404;9.808;2022-08-20T12:42:46;2.95;;;2.65;;
43226;SDS011;28839;52.404;9.808;2022-08-20T12:49:41;3.78;;;3.30;;
43226;SDS011;28839;52.404;9.808;2022-08-20T12:56:38;5.37;;;4.82;;
43226;SDS011;28839;52.404;9.808;2022-08-20T13:03:32;5.90;;;4.97;;
43226;SDS011;28839;52.404;9.808;2022-08-20T13:10:27;4.72;;;4.20;;
43226;SDS011;28839;52.404;9.808;2022-08-20T13:17:24;4.82;;;3.92;;
43226;SDS011;28839;52.404;9.808;2022-08-20T13:24:17;4.32;;;3.92;;
43226;SDS011;28839;52.404;9.808;2022-08-20T13:31:11;4.22;;;3.83;;
43226;SDS011;28839;52.404;9.808;2022-08-20T13:38:07;4.03;;;3.53;;
43226;SDS011;28839;52.404;9.808;2022-08-20T13:45:00;4.60;;;3.35;;
43226;SDS011;28839;52.404;9.808;2022-08-20T13:51:54;6.85;;;4.50;;
43226;SDS011;28839;52.404;9.808;2022-08-20T13:58:50;4.60;;;3.58;;
43226;SDS011;28839;52.404;9.808;2022-08-20T14:05:44;5.07;;;4.22;;
43226;SDS011;28839;52.404;9.808;2022-08-20T14:12:38;3.65;;;3.33;;
43226;SDS011;28839;52.404;9.808;2022-08-20T14:19:33;2.72;;;2.50;;
43226;SDS011;28839;52.404;9.808;2022-08-20T14:26:29;3.30;;;2.80;;
43226;SDS011;28839;52.404;9.808;2022-08-20T14:33:23;3.25;;;2.67;;
43226;SDS011;28839;52.404;9.808;2022-08-20T14:40:19;3.65;;;2.90;;
43226;SDS011;28839;52.404;9.808;2022-08-20T14:47:16;5.32;;;2.75;;
43226;SDS011;28839;52.404;9.808;2022-08-20T14:54:11;6.15;;;3.10;;
43226;SDS011;28839;52.404;9.808;2022-08-20T15:01:06;6.30;;;3.17;;
43226;SDS011;28839;52.404;9.808;2022-08-20T15:08:01;4.15;;;2.58;;
43226;SDS011;28839;52.404;9.808;2022-08-20T15:14:55;5.45;;;3.22;;
43226;SDS011;28839;52.404;9.808;2022-08-20T15:21:50;3.47;;;2.85;;
43226;SDS011;28839;52.404;9.808;2022-08-20T15:28:47;6.03;;;3.80;;
43226;SDS011;28839;52.404;9.808;2022-08-20T15:35:41;2.97;;;2.50;;
43226;SDS011;28839;52.404;9.808;2022-08-20T15:42:36;7.43;;;2.90;;
43226;SDS011;28839;52.404;9.808;2022-08-20T15:49:30;5.40;;;2.42;;
43226;SDS011;28839;52.404;9.808;2022-08-20T15:56:28;4.40;;;2.72;;
43226;SDS011;28839;52.404;9.808;2022-08-20T16:03:58;4.97;;;2.58;;
43226;SDS011;28839;52.404;9.808;2022-08-20T16:11:16;5.87;;;2.87;;
43226;SDS011;28839;52.404;9.808;2022-08-20T16:18:20;5.37;;;2.50;;
43226;SDS011;28839;52.404;9.808;2022-08-20T16:25:19;3.65;;;2.62;;
43226;SDS011;28839;52.404;9.808;2022-08-20T16:32:16;3.75;;;2.47;;
43226;SDS011;28839;52.404;9.808;2022-08-20T16:39:19;6.87;;;2.42;;
43226;SDS011;28839;52.404;9.808;2022-08-20T16:46:19;4.47;;;2.55;;
43226;SDS011;28839;52.404;9.808;2022-08-20T16:53:17;4.07;;;2.33;;
43226;SDS011;28839;52.404;9.808;2022-08-20T17:00:18;5.10;;;2.55;;
43226;SDS011;28839;52.404;9.808;2022-08-20T17:07:15;6.07;;;2.75;;
43226;SDS011;28839;52.404;9.808;2022-08-20T17:14:17;7.30;;;2.62;;
43226;SDS011;28839;52.404;9.808;2022-08-20T17:21:12;5.80;;;2.47;;
43226;SDS011;28839;52.404;9.808;2022-08-20T17:28:16;5.00;;;2.40;;
43226;SDS011;28839;52.404;9.808;2022-08-20T17:35:18;7.30;;;3.55;;
43226;SDS011;28839;52.404;9.808;2022-08-20T17:42:16;5.30;;;3.10;;
43226;SDS011;28839;52.404;9.808;2022-08-20T17:49:14;6.60;;;3.12;;
43226;SDS011;28839;52.404;9.808;2022-08-20T17:56:12;6.85;;;2.60;;
43226;SDS011;28839;52.404;9.808;2022-08-20T18:03:15;7.60;;;2.28;;
43226;SDS011;28839;52.404;9.808;2022-08-20T18:10:14;5.40;;;2.42;;
43226;SDS011;28839;52.404;9.808;2022-08-20T18:17:14;7.55;;;2.30;;
43226;SDS011;28839;52.404;9.808;2022-08-20T18:24:17;7.20;;;2.17;;
43226;SDS011;28839;52.404;9.808;2022-08-20T18:31:25;6.05;;;2.08;;
43226;SDS011;28839;52.404;9.808;2022-08-20T18:38:25;10.63;;;4.05;;
43226;SDS011;28839;52.404;9.808;2022-08-20T18:45:28;6.78;;;2.08;;
43226;SDS011;28839;52.404;9.808;2022-08-20T18:52:25;6.18;;;2.22;;
43226;SDS011;28839;52.404;9.808;2022-08-20T18:59:21;6.60;;;2.22;;
43226;SDS011;28839;52.404;9.808;2022-08-20T19:06:19;7.05;;;2.90;;
43226;SDS011;28839;52.404;9.808;2022-08-20T19:13:44;6.50;;;2.55;;
43226;SDS011;28839;52.404;9.808;2022-08-20T19:21:05;7.32;;;2.78;;
43226;SDS011;28839;52.404;9.808;2022-08-20T19:28:03;8.13;;;2.40;;
43226;SDS011;28839;52.404;9.808;2022-08-20T19:35:15;7.85;;;2.33;;
43226;SDS011;28839;52.404;9.808;2022-08-20T19:42:11;4.28;;;1.85;;
43226;SDS011;28839;52.404;9.808;2022-08-20T19:49:13;6.47;;;1.87;;
43226;SDS011;28839;52.404;9.808;2022-08-20T19:56:14;8.85;;;2.30;;
43226;SDS011;28839;52.404;9.808;2022-08-20T20:03:13;8.77;;;2.12;;
43226;SDS011;28839;52.404;9.808;2022-08-20T20:10:15;5.75;;;1.80;;
43226;SDS011;28839;52.404;9.808;2022-08-20T20:17:18;3.80;;;1.70;;
43226;SDS011;28839;52.404;9.808;2022-08-20T20:24:19;3.72;;;2.15;;
43226;SDS011;28839;52.404;9.808;2022-08-20T20:31:27;6.70;;;2.08;;
43226;SDS011;28839;52.404;9.808;2022-08-20T20:38:24;4.57;;;1.55;;
43226;SDS011;28839;52.404;9.808;2022-08-20T20:45:20;3.60;;;1.12;;
43226;SDS011;28839;52.404;9.808;2022-08-20T20:52:19;7.25;;;1.58;;
43226;SDS011;28839;52.404;9.808;2022-08-20T20:59:16;6.32;;;1.95;;
43226;SDS011;28839;52.404;9.808;2022-08-20T21:06:09;6.47;;;1.90;;
43226;SDS011;28839;52.404;9.808;2022-08-20T21:13:04;4.80;;;2.05;;
43226;SDS011;28839;52.404;9.808;2022-08-20T21:20:00;4.97;;;1.30;;
43226;SDS011;28839;52.404;9.808;2022-08-20T21:26:56;3.28;;;1.50;;
43226;SDS011;28839;52.404;9.808;2022-08-20T21:33:52;5.15;;;2.00;;
43226;SDS011;28839;52.404;9.808;2022-08-20T21:40:47;7.37;;;1.80;;
43226;SDS011;28839;52.404;9.808;2022-08-20T21:47:41;3.37;;;1.30;;
43226;SDS011;28839;52.404;9.808;2022-08-20T21:54:35;4.93;;;1.80;;
43226;SDS011;28839;52.404;9.808;2022-08-20T22:01:30;5.87;;;2.25;;
43226;SDS011;28839;52.404;9.808;2022-08-20T22:08:24;4.55;;;1.60;;
43226;SDS011;28839;52.404;9.808;2022-08-20T22:22:14;2.92;;;1.60;;
43226;SDS011;28839;52.404;9.808;2022-08-20T22:29:09;3.53;;;1.35;;
43226;SDS011;28839;52.404;9.808;2022-08-20T22:36:04;5.07;;;1.50;;
43226;SDS011;28839;52.404;9.808;2022-08-20T22:43:00;10.63;;;3.58;;
43226;SDS011;28839;52.404;9.808;2022-08-20T22:49:54;6.47;;;2.65;;
43226;SDS011;28839;52.404;9.808;2022-08-20T22:56:49;4.40;;;1.95;;
43226;SDS011;28839;52.404;9.808;2022-08-20T23:03:45;6.62;;;2.50;;
43226;SDS011;28839;52.404;9.808;2022-08-20T23:10:39;7.35;;;2.65;;
43226;SDS011;28839;52.404;9.808;2022-08-20T23:17:34;6.40;;;2.20;;
43226;SDS011;28839;52.404;9.808;2022-08-20T23:24:30;6.87;;;2.40;;
43226;SDS011;28839;52.404;9.808;2022-08-20T23:31:24;5.47;;;2.95;;
43226;SDS011;28839;52.404;9.808;2022-08-20T23:38:18;4.60;;;2.13;;
43226;SDS011;28839;52.404;9.808;2022-08-20T23:45:14;8.17;;;1.93;;
43226;SDS011;28839;52.404;9.808;2022-08-20T23:52:08;5.50;;;2.28;;
43226;SDS011;28839;52.404;9.808;2022-08-20T23:59:02;5.07;;;2.13;;
